Milford, Nebraska
Current Conditions -  °F | °C
As of 7:54 AM on Monday 24 Nov 2014 (Local Time) from KLNK Reporting Station
Overcast Overcast  
Wind Chill: 19°   Ceiling: 2800
Heat Index: 31°   Visibility: 10mi
Dew Point: 19°   Wind: 20mph
Humidity: 61%   Direction: 310°NW
Pressure: 29.7"   Gusts: 25mph
Location:  40.77°N, 97.05°W
Report Text: KLNK 241354Z 31017G22KT 10SM OVC028 M01/M07 A2970 RMK AO2 SLP064 T10061072
Loading
Personal Weather Stations






























Interactive Weather Map New forecast layout! Learn more

10-Day Weather Forecast

Advertisements
Track Severe Weather on mobile